sensor_id;sensor_type;location;lat;lon;timestamp;pressure;altitude;pressure_sealevel;temperature;humidity
29197;BME280;62796;42.654;23.316;2023-03-15T00:00:02;93584.59;;;9.95;33.42
29197;BME280;62796;42.654;23.316;2023-03-15T00:02:28;93573.31;;;9.93;33.51
29197;BME280;62796;42.654;23.316;2023-03-15T00:04:53;93575.31;;;9.98;33.78
29197;BME280;62796;42.654;23.316;2023-03-15T00:07:19;93572.53;;;9.98;33.74
29197;BME280;62796;42.654;23.316;2023-03-15T00:09:50;93566.53;;;9.94;33.87
29197;BME280;62796;42.654;23.316;2023-03-15T00:12:16;93566.53;;;9.94;33.97
29197;BME280;62796;42.654;23.316;2023-03-15T00:14:41;93568.53;;;9.88;34.18
29197;BME280;62796;42.654;23.316;2023-03-15T00:17:07;93579.34;;;9.80;34.23
29197;BME280;62796;42.654;23.316;2023-03-15T00:19:32;93575.34;;;9.76;34.21
29197;BME280;62796;42.654;23.316;2023-03-15T00:21:58;93580.59;;;9.74;34.31
29197;BME280;62796;42.654;23.316;2023-03-15T00:24:23;93576.56;;;9.75;34.29
29197;BME280;62796;42.654;23.316;2023-03-15T00:26:48;93573.31;;;9.76;34.32
29197;BME280;62796;42.654;23.316;2023-03-15T00:29:14;93567.53;;;9.80;34.18
29197;BME280;62796;42.654;23.316;2023-03-15T00:31:39;93562.50;;;9.73;34.56
29197;BME280;62796;42.654;23.316;2023-03-15T00:34:05;93573.06;;;9.80;34.57
29197;BME280;62796;42.654;23.316;2023-03-15T00:36:31;93571.06;;;9.75;34.98
29197;BME280;62796;42.654;23.316;2023-03-15T00:38:56;93563.00;;;9.77;34.82
29197;BME280;62796;42.654;23.316;2023-03-15T00:41:22;93565.00;;;9.71;35.27
29197;BME280;62796;42.654;23.316;2023-03-15T00:43:48;93564.25;;;9.65;35.10
29197;BME280;62796;42.654;23.316;2023-03-15T00:46:14;93562.78;;;9.53;35.30
29197;BME280;62796;42.654;23.316;2023-03-15T00:48:40;93565.03;;;9.49;35.54
29197;BME280;62796;42.654;23.316;2023-03-15T00:51:09;93547.19;;;9.50;35.67
29197;BME280;62796;42.654;23.316;2023-03-15T00:53:36;93548.44;;;9.49;35.84
29197;BME280;62796;42.654;23.316;2023-03-15T00:56:08;93551.44;;;9.51;35.50
29197;BME280;62796;42.654;23.316;2023-03-15T00:58:34;93544.41;;;9.44;35.48
29197;BME280;62796;42.654;23.316;2023-03-15T01:01:07;93542.91;;;9.49;35.61
29197;BME280;62796;42.654;23.316;2023-03-15T01:03:33;93537.91;;;9.53;34.89
29197;BME280;62796;42.654;23.316;2023-03-15T01:06:04;93514.50;;;9.42;34.95
29197;BME280;62796;42.654;23.316;2023-03-15T01:08:30;93522.81;;;9.54;35.07
29197;BME280;62796;42.654;23.316;2023-03-15T01:10:55;93528.84;;;9.58;34.71
29197;BME280;62796;42.654;23.316;2023-03-15T01:13:20;93521.31;;;9.53;34.76
29197;BME280;62796;42.654;23.316;2023-03-15T01:15:46;93526.56;;;9.62;35.05
29197;BME280;62796;42.654;23.316;2023-03-15T01:18:11;93529.84;;;9.66;35.23
29197;BME280;62796;42.654;23.316;2023-03-15T01:20:41;93513.00;;;9.64;35.49
29197;BME280;62796;42.654;23.316;2023-03-15T01:23:06;93517.28;;;9.76;35.38
29197;BME280;62796;42.654;23.316;2023-03-15T01:25:33;93513.97;;;9.83;35.03
29197;BME280;62796;42.654;23.316;2023-03-15T01:27:58;93510.47;;;9.82;34.90
29197;BME280;62796;42.654;23.316;2023-03-15T01:30:24;93500.66;;;9.87;35.26
29197;BME280;62796;42.654;23.316;2023-03-15T01:32:49;93512.69;;;9.95;35.33
29197;BME280;62796;42.654;23.316;2023-03-15T01:35:14;93508.69;;;9.90;35.03
29197;BME280;62796;42.654;23.316;2023-03-15T01:37:40;93499.63;;;9.90;34.96
29197;BME280;62796;42.654;23.316;2023-03-15T01:40:07;93497.63;;;9.90;35.15
29197;BME280;62796;42.654;23.316;2023-03-15T01:42:49;93500.16;;;9.94;35.46
29197;BME280;62796;42.654;23.316;2023-03-15T01:48:19;93487.06;;;9.89;35.33
29197;BME280;62796;42.654;23.316;2023-03-15T01:50:47;93490.56;;;9.95;35.36
29197;BME280;62796;42.654;23.316;2023-03-15T01:53:13;93483.31;;;9.81;35.92
29197;BME280;62796;42.654;23.316;2023-03-15T01:55:39;93474.50;;;9.77;36.12
29197;BME280;62796;42.654;23.316;2023-03-15T01:58:05;93481.31;;;9.76;36.23
29197;BME280;62796;42.654;23.316;2023-03-15T02:00:32;93479.03;;;9.80;36.39
29197;BME280;62796;42.654;23.316;2023-03-15T02:03:07;93481.78;;;9.80;36.85
29197;BME280;62796;42.654;23.316;2023-03-15T02:05:41;93470.25;;;9.81;36.82
29197;BME280;62796;42.654;23.316;2023-03-15T02:08:12;93464.97;;;9.78;36.92
29197;BME280;62796;42.654;23.316;2023-03-15T02:10:45;93452.91;;;9.81;37.08
29197;BME280;62796;42.654;23.316;2023-03-15T02:13:16;93458.44;;;9.81;37.07
29197;BME280;62796;42.654;23.316;2023-03-15T02:15:42;93455.16;;;9.82;36.44
29197;BME280;62796;42.654;23.316;2023-03-15T02:18:13;93452.91;;;9.81;36.73
29197;BME280;62796;42.654;23.316;2023-03-15T02:21:05;93450.38;;;9.77;36.97
29197;BME280;62796;42.654;23.316;2023-03-15T02:23:32;93443.34;;;9.82;36.19
29197;BME280;62796;42.654;23.316;2023-03-15T02:28:26;93430.56;;;9.62;35.58
29197;BME280;62796;42.654;23.316;2023-03-15T02:30:52;93436.59;;;9.66;36.03
29197;BME280;62796;42.654;23.316;2023-03-15T02:33:23;93443.63;;;9.67;36.94
29197;BME280;62796;42.654;23.316;2023-03-15T02:35:50;93438.84;;;9.68;37.10
29197;BME280;62796;42.654;23.316;2023-03-15T02:38:16;93443.88;;;9.75;36.80
29197;BME280;62796;42.654;23.316;2023-03-15T02:40:44;93440.84;;;9.73;36.58
29197;BME280;62796;42.654;23.316;2023-03-15T02:43:16;93437.34;;;9.67;36.66
29197;BME280;62796;42.654;23.316;2023-03-15T02:45:43;93449.16;;;9.67;36.84
29197;BME280;62796;42.654;23.316;2023-03-15T02:48:10;93439.84;;;9.65;37.38
29197;BME280;62796;42.654;23.316;2023-03-15T02:50:37;93427.56;;;9.60;37.46
29197;BME280;62796;42.654;23.316;2023-03-15T02:53:02;93436.59;;;9.61;37.83
29197;BME280;62796;42.654;23.316;2023-03-15T02:55:28;93426.28;;;9.67;37.44
29197;BME280;62796;42.654;23.316;2023-03-15T02:57:57;93429.56;;;9.60;37.62
29197;BME280;62796;42.654;23.316;2023-03-15T03:00:22;93432.88;;;9.53;37.41
29197;BME280;62796;42.654;23.316;2023-03-15T03:02:48;93429.84;;;9.51;37.70
29197;BME280;62796;42.654;23.316;2023-03-15T03:05:14;93428.59;;;9.46;37.79
29197;BME280;62796;42.654;23.316;2023-03-15T03:07:40;93421.31;;;9.37;37.91
29197;BME280;62796;42.654;23.316;2023-03-15T03:10:11;93416.53;;;9.32;37.96
29197;BME280;62796;42.654;23.316;2023-03-15T03:12:37;93411.00;;;9.32;37.86
29197;BME280;62796;42.654;23.316;2023-03-15T03:15:03;93407.50;;;9.32;37.90
29197;BME280;62796;42.654;23.316;2023-03-15T03:17:29;93406.25;;;9.27;38.08
29197;BME280;62796;42.654;23.316;2023-03-15T03:19:55;93412.53;;;9.28;38.58
29197;BME280;62796;42.654;23.316;2023-03-15T03:22:20;93400.22;;;9.23;38.75
29197;BME280;62796;42.654;23.316;2023-03-15T03:24:49;93402.25;;;9.28;39.11
29197;BME280;62796;42.654;23.316;2023-03-15T03:27:16;93403.50;;;9.27;38.89
29197;BME280;62796;42.654;23.316;2023-03-15T03:29:41;93399.72;;;9.30;39.13
29197;BME280;62796;42.654;23.316;2023-03-15T03:32:07;93399.72;;;9.30;39.58
29197;BME280;62796;42.654;23.316;2023-03-15T03:34:33;93394.19;;;9.30;39.71
29197;BME280;62796;42.654;23.316;2023-03-15T03:36:59;93389.44;;;9.25;39.68
29197;BME280;62796;42.654;23.316;2023-03-15T03:39:24;93393.44;;;9.30;39.54
29197;BME280;62796;42.654;23.316;2023-03-15T03:41:50;93381.38;;;9.27;39.52
29197;BME280;62796;42.654;23.316;2023-03-15T03:44:15;93381.63;;;9.29;39.25
29197;BME280;62796;42.654;23.316;2023-03-15T03:46:41;93374.63;;;9.28;39.28
29197;BME280;62796;42.654;23.316;2023-03-15T03:49:06;93382.16;;;9.28;39.26
29197;BME280;62796;42.654;23.316;2023-03-15T03:51:32;93388.41;;;9.23;39.33
29197;BME280;62796;42.654;23.316;2023-03-15T03:54:02;93390.44;;;9.22;39.33
29197;BME280;62796;42.654;23.316;2023-03-15T03:56:28;93374.88;;;9.25;39.40
29197;BME280;62796;42.654;23.316;2023-03-15T03:58:54;93374.38;;;9.21;39.58
29197;BME280;62796;42.654;23.316;2023-03-15T04:01:19;93374.88;;;9.25;39.72
29197;BME280;62796;42.654;23.316;2023-03-15T04:03:47;93373.59;;;9.20;39.75
29197;BME280;62796;42.654;23.316;2023-03-15T04:06:13;93357.56;;;9.13;39.97
29197;BME280;62796;42.654;23.316;2023-03-15T04:08:38;93358.56;;;9.21;39.75
29197;BME280;62796;42.654;23.316;2023-03-15T04:11:05;93360.31;;;9.24;40.25
29197;BME280;62796;42.654;23.316;2023-03-15T04:13:31;93358.56;;;9.21;40.17
29197;BME280;62796;42.654;23.316;2023-03-15T04:15:57;93366.06;;;9.26;40.03
29197;BME280;62796;42.654;23.316;2023-03-15T04:18:23;93360.28;;;9.30;40.10
29197;BME280;62796;42.654;23.316;2023-03-15T04:20:48;93365.56;;;9.33;39.95
29197;BME280;62796;42.654;23.316;2023-03-15T04:23:15;93361.81;;;9.31;40.16
29197;BME280;62796;42.654;23.316;2023-03-15T04:25:47;93368.09;;;9.31;40.01
29197;BME280;62796;42.654;23.316;2023-03-15T04:28:12;93362.06;;;9.27;39.83
29197;BME280;62796;42.654;23.316;2023-03-15T04:30:38;93360.53;;;9.26;40.13
29197;BME280;62796;42.654;23.316;2023-03-15T04:33:04;93358.03;;;9.28;40.10
29197;BME280;62796;42.654;23.316;2023-03-15T04:35:32;93353.53;;;9.25;39.83
29197;BME280;62796;42.654;23.316;2023-03-15T04:37:57;93347.25;;;9.25;39.57
29197;BME280;62796;42.654;23.316;2023-03-15T04:40:23;93357.31;;;9.22;39.64
29197;BME280;62796;42.654;23.316;2023-03-15T04:42:54;93354.28;;;9.15;39.85
29197;BME280;62796;42.654;23.316;2023-03-15T04:45:23;93353.81;;;9.11;39.51
29197;BME280;62796;42.654;23.316;2023-03-15T04:47:49;93359.59;;;9.07;39.49
29197;BME280;62796;42.654;23.316;2023-03-15T04:50:16;93357.31;;;9.06;39.44
29197;BME280;62796;42.654;23.316;2023-03-15T04:52:41;93357.84;;;8.99;39.76
29197;BME280;62796;42.654;23.316;2023-03-15T04:55:07;93363.59;;;9.06;39.95
29197;BME280;62796;42.654;23.316;2023-03-15T04:57:33;93356.06;;;9.01;40.00
29197;BME280;62796;42.654;23.316;2023-03-15T04:59:58;93353.78;;;9.05;40.27
29197;BME280;62796;42.654;23.316;2023-03-15T05:02:23;93351.03;;;9.05;40.07
29197;BME280;62796;42.654;23.316;2023-03-15T05:04:49;93361.59;;;9.01;40.30
29197;BME280;62796;42.654;23.316;2023-03-15T05:07:14;93360.59;;;9.04;40.08
29197;BME280;62796;42.654;23.316;2023-03-15T05:09:40;93362.59;;;9.09;40.17
29197;BME280;62796;42.654;23.316;2023-03-15T05:12:06;93362.59;;;9.09;40.27
29197;BME280;62796;42.654;23.316;2023-03-15T05:14:32;93353.56;;;9.03;40.34
29197;BME280;62796;42.654;23.316;2023-03-15T05:16:57;93365.59;;;9.11;38.95
29197;BME280;62796;42.654;23.316;2023-03-15T05:19:26;93362.09;;;9.16;36.39
29197;BME280;62796;42.654;23.316;2023-03-15T05:21:52;93363.31;;;9.26;35.79
29197;BME280;62796;42.654;23.316;2023-03-15T05:24:19;93357.75;;;9.32;35.55
29197;BME280;62796;42.654;23.316;2023-03-15T05:26:44;93350.00;;;9.30;35.36
29197;BME280;62796;42.654;23.316;2023-03-15T05:29:14;93348.75;;;9.31;34.81
29197;BME280;62796;42.654;23.316;2023-03-15T05:31:39;93343.72;;;9.30;34.75
29197;BME280;62796;42.654;23.316;2023-03-15T05:34:06;93353.50;;;9.36;34.95
29197;BME280;62796;42.654;23.316;2023-03-15T05:36:33;93357.25;;;9.39;34.98
29197;BME280;62796;42.654;23.316;2023-03-15T05:38:59;93348.94;;;9.44;35.00
29197;BME280;62796;42.654;23.316;2023-03-15T05:41:24;93346.44;;;9.47;34.91
29197;BME280;62796;42.654;23.316;2023-03-15T05:43:50;93347.41;;;9.55;35.26
29197;BME280;62796;42.654;23.316;2023-03-15T05:46:16;93343.66;;;9.58;35.38
29197;BME280;62796;42.654;23.316;2023-03-15T05:48:41;93336.31;;;9.66;34.83
29197;BME280;62796;42.654;23.316;2023-03-15T05:51:07;93347.88;;;9.70;34.62
29197;BME280;62796;42.654;23.316;2023-03-15T05:53:33;93340.84;;;9.69;34.60
29197;BME280;62796;42.654;23.316;2023-03-15T05:55:58;93339.31;;;9.68;35.04
29197;BME280;62796;42.654;23.316;2023-03-15T05:58:24;93341.78;;;9.77;34.89
29197;BME280;62796;42.654;23.316;2023-03-15T06:00:49;93346.81;;;9.84;34.71
29197;BME280;62796;42.654;23.316;2023-03-15T06:03:15;93340.78;;;9.80;34.25
29197;BME280;62796;42.654;23.316;2023-03-15T06:05:41;93347.31;;;9.88;34.46
29197;BME280;62796;42.654;23.316;2023-03-15T06:08:07;93335.47;;;9.93;34.49
29197;BME280;62796;42.654;23.316;2023-03-15T06:10:32;93339.16;;;10.07;34.28
29197;BME280;62796;42.654;23.316;2023-03-15T06:12:58;93335.63;;;10.17;34.54
29197;BME280;62796;42.654;23.316;2023-03-15T06:15:24;93339.97;;;10.42;34.11
29197;BME280;62796;42.654;23.316;2023-03-15T06:17:50;93345.91;;;10.57;34.14
29197;BME280;62796;42.654;23.316;2023-03-15T06:20:15;93343.31;;;10.71;34.11
29197;BME280;62796;42.654;23.316;2023-03-15T06:22:41;93349.16;;;10.97;33.82
29197;BME280;62796;42.654;23.316;2023-03-15T06:25:07;93349.78;;;11.08;33.37
29197;BME280;62796;42.654;23.316;2023-03-15T06:27:33;93338.44;;;11.12;32.16
29197;BME280;62796;42.654;23.316;2023-03-15T06:29:58;93340.16;;;11.15;31.83
29197;BME280;62796;42.654;23.316;2023-03-15T06:32:24;93335.31;;;11.21;31.85
29197;BME280;62796;42.654;23.316;2023-03-15T06:34:50;93324.94;;;11.51;31.76
29197;BME280;62796;42.654;23.316;2023-03-15T06:37:15;93329.31;;;11.65;31.41
29197;BME280;62796;42.654;23.316;2023-03-15T06:39:41;93333.75;;;11.80;31.33
29197;BME280;62796;42.654;23.316;2023-03-15T06:42:06;93341.38;;;11.92;30.70
29197;BME280;62796;42.654;23.316;2023-03-15T06:44:33;93337.97;;;12.05;30.44
29197;BME280;62796;42.654;23.316;2023-03-15T06:46:59;93321.47;;;12.31;29.62
29197;BME280;62796;42.654;23.316;2023-03-15T06:49:25;93323.44;;;12.36;29.83
29197;BME280;62796;42.654;23.316;2023-03-15T06:51:50;93332.69;;;12.57;29.29
29197;BME280;62796;42.654;23.316;2023-03-15T06:54:16;93336.13;;;12.82;29.03
29197;BME280;62796;42.654;23.316;2023-03-15T06:56:42;93340.03;;;13.05;28.85
29197;BME280;62796;42.654;23.316;2023-03-15T06:59:07;93327.56;;;13.12;28.45
29197;BME280;62796;42.654;23.316;2023-03-15T07:01:32;93319.47;;;13.14;28.46
29197;BME280;62796;42.654;23.316;2023-03-15T07:03:58;93322.84;;;13.07;28.74
29197;BME280;62796;42.654;23.316;2023-03-15T07:06:23;93326.59;;;13.09;28.88
29197;BME280;62796;42.654;23.316;2023-03-15T07:08:49;93316.91;;;13.29;28.84
29197;BME280;62796;42.654;23.316;2023-03-15T07:11:14;93324.13;;;13.64;28.90
29197;BME280;62796;42.654;23.316;2023-03-15T07:13:40;93312.03;;;13.88;28.01
29197;BME280;62796;42.654;23.316;2023-03-15T07:16:05;93317.16;;;13.83;27.51
29197;BME280;62796;42.654;23.316;2023-03-15T07:18:32;93307.63;;;14.05;27.68
29197;BME280;62796;42.654;23.316;2023-03-15T07:21:00;93314.47;;;14.17;27.24
29197;BME280;62796;42.654;23.316;2023-03-15T07:23:26;93321.50;;;14.45;26.73
29197;BME280;62796;42.654;23.316;2023-03-15T07:25:52;93324.25;;;14.78;26.12
29197;BME280;62796;42.654;23.316;2023-03-15T07:28:18;93327.44;;;15.16;25.38
29197;BME280;62796;42.654;23.316;2023-03-15T07:30:51;93318.78;;;15.48;24.94
29197;BME280;62796;42.654;23.316;2023-03-15T07:33:17;93311.78;;;15.83;24.03
29197;BME280;62796;42.654;23.316;2023-03-15T07:35:42;93297.63;;;15.81;23.89
29197;BME280;62796;42.654;23.316;2023-03-15T07:38:08;93316.00;;;16.04;23.89
29197;BME280;62796;42.654;23.316;2023-03-15T07:40:33;93315.56;;;16.29;23.63
29197;BME280;62796;42.654;23.316;2023-03-15T07:42:58;93309.00;;;16.62;22.67
29197;BME280;62796;42.654;23.316;2023-03-15T07:45:24;93316.69;;;16.69;22.19
29197;BME280;62796;42.654;23.316;2023-03-15T07:47:49;93302.22;;;16.93;22.44
29197;BME280;62796;42.654;23.316;2023-03-15T07:50:15;93298.13;;;17.25;21.63
29197;BME280;62796;42.654;23.316;2023-03-15T07:52:41;93300.19;;;17.39;21.67
29197;BME280;62796;42.654;23.316;2023-03-15T07:55:07;93304.47;;;17.48;21.71
29197;BME280;62796;42.654;23.316;2023-03-15T07:57:33;93298.69;;;17.31;21.81
29197;BME280;62796;42.654;23.316;2023-03-15T07:59:58;93298.69;;;17.15;22.29
29197;BME280;62796;42.654;23.316;2023-03-15T08:02:23;93302.38;;;17.03;22.41
29197;BME280;62796;42.654;23.316;2023-03-15T08:04:49;93297.47;;;16.73;23.08
29197;BME280;62796;42.654;23.316;2023-03-15T08:07:15;93299.59;;;17.03;22.65
29197;BME280;62796;42.654;23.316;2023-03-15T08:09:41;93307.19;;;16.72;22.66
29197;BME280;62796;42.654;23.316;2023-03-15T08:12:07;93304.44;;;16.95;22.46
29197;BME280;62796;42.654;23.316;2023-03-15T08:14:32;93296.03;;;17.02;22.47
29197;BME280;62796;42.654;23.316;2023-03-15T08:16:58;93288.94;;;16.86;22.41
29197;BME280;62796;42.654;23.316;2023-03-15T08:19:23;93287.09;;;16.96;22.50
29197;BME280;62796;42.654;23.316;2023-03-15T08:21:49;93276.28;;;17.15;22.26
29197;BME280;62796;42.654;23.316;2023-03-15T08:24:18;93288.47;;;17.56;21.69
29197;BME280;62796;42.654;23.316;2023-03-15T08:26:43;93284.50;;;17.74;21.88
29197;BME280;62796;42.654;23.316;2023-03-15T08:29:09;93287.13;;;17.72;21.57
29197;BME280;62796;42.654;23.316;2023-03-15T08:31:35;93276.69;;;17.35;22.02
29197;BME280;62796;42.654;23.316;2023-03-15T08:34:01;93278.72;;;17.27;22.06
29197;BME280;62796;42.654;23.316;2023-03-15T08:36:26;93282.06;;;17.33;21.93
29197;BME280;62796;42.654;23.316;2023-03-15T08:38:51;93277.41;;;16.90;22.38
29197;BME280;62796;42.654;23.316;2023-03-15T08:41:17;93280.03;;;17.26;22.62
29197;BME280;62796;42.654;23.316;2023-03-15T08:43:42;93277.59;;;17.45;22.16
29197;BME280;62796;42.654;23.316;2023-03-15T08:46:08;93261.38;;;17.66;22.25
29197;BME280;62796;42.654;23.316;2023-03-15T08:48:33;93257.59;;;17.94;21.58
29197;BME280;62796;42.654;23.316;2023-03-15T08:51:03;93264.53;;;17.85;21.87
29197;BME280;62796;42.654;23.316;2023-03-15T08:53:29;93266.91;;;18.04;21.56
29197;BME280;62796;42.654;23.316;2023-03-15T08:55:55;93280.66;;;18.24;21.46
29197;BME280;62796;42.654;23.316;2023-03-15T08:58:21;93283.47;;;18.24;20.91
29197;BME280;62796;42.654;23.316;2023-03-15T09:00:48;93279.06;;;17.91;21.30
29197;BME280;62796;42.654;23.316;2023-03-15T09:03:13;93280.63;;;17.62;21.64
29197;BME280;62796;42.654;23.316;2023-03-15T09:05:40;93277.41;;;17.81;21.72
29197;BME280;62796;42.654;23.316;2023-03-15T09:08:05;93285.97;;;17.90;21.36
29197;BME280;62796;42.654;23.316;2023-03-15T09:10:30;93279.63;;;17.97;21.39
29197;BME280;62796;42.654;23.316;2023-03-15T09:12:56;93277.75;;;17.92;21.36
29197;BME280;62796;42.654;23.316;2023-03-15T09:15:21;93269.19;;;17.83;21.37
29197;BME280;62796;42.654;23.316;2023-03-15T09:17:48;93271.44;;;17.69;21.62
29197;BME280;62796;42.654;23.316;2023-03-15T09:20:15;93279.28;;;17.48;22.12
29197;BME280;62796;42.654;23.316;2023-03-15T09:22:44;93280.78;;;17.34;22.71
29197;BME280;62796;42.654;23.316;2023-03-15T09:25:13;93284.13;;;17.09;22.74
29197;BME280;62796;42.654;23.316;2023-03-15T09:27:38;93286.53;;;16.90;23.30
29197;BME280;62796;42.654;23.316;2023-03-15T09:30:04;93282.78;;;16.80;23.60
29197;BME280;62796;42.654;23.316;2023-03-15T09:32:30;93280.34;;;16.69;23.63
29197;BME280;62796;42.654;23.316;2023-03-15T09:35:01;93271.56;;;16.57;23.66
29197;BME280;62796;42.654;23.316;2023-03-15T09:37:27;93268.38;;;16.61;23.74
29197;BME280;62796;42.654;23.316;2023-03-15T09:39:52;93258.69;;;16.70;24.52
29197;BME280;62796;42.654;23.316;2023-03-15T09:42:24;93260.41;;;16.88;24.29
29197;BME280;62796;42.654;23.316;2023-03-15T09:53:05;93243.19;;;16.02;25.25
29197;BME280;62796;42.654;23.316;2023-03-15T09:55:39;93243.16;;;15.95;25.17
29197;BME280;62796;42.654;23.316;2023-03-15T09:58:12;93245.41;;;16.04;25.29
29197;BME280;62796;42.654;23.316;2023-03-15T10:00:46;93242.84;;;16.06;24.95
29197;BME280;62796;42.654;23.316;2023-03-15T10:03:50;93248.97;;;16.04;24.86
29197;BME280;62796;42.654;23.316;2023-03-15T10:06:25;93248.19;;;15.96;24.98
29197;BME280;62796;42.654;23.316;2023-03-15T10:08:55;93258.25;;;15.99;24.74
29197;BME280;62796;42.654;23.316;2023-03-15T10:17:13;93248.16;;;15.89;25.22
29197;BME280;62796;42.654;23.316;2023-03-15T10:24:58;93250.16;;;15.81;25.43
29197;BME280;62796;42.654;23.316;2023-03-15T10:30:01;93250.91;;;15.81;25.36
29197;BME280;62796;42.654;23.316;2023-03-15T10:32:30;93241.59;;;15.79;25.43
29197;BME280;62796;42.654;23.316;2023-03-15T10:35:05;93234.13;;;15.74;25.24
29197;BME280;62796;42.654;23.316;2023-03-15T10:37:35;93244.03;;;15.82;25.66
29197;BME280;62796;42.654;23.316;2023-03-15T10:40:00;93241.44;;;15.84;25.41
29197;BME280;62796;42.654;23.316;2023-03-15T10:44:53;93244.91;;;15.77;25.26
29197;BME280;62796;42.654;23.316;2023-03-15T10:47:19;93250.13;;;15.73;25.19
29197;BME280;62796;42.654;23.316;2023-03-15T10:49:46;93245.66;;;15.70;25.27
29197;BME280;62796;42.654;23.316;2023-03-15T10:54:56;93243.22;;;15.67;25.33
29197;BME280;62796;42.654;23.316;2023-03-15T10:57:26;93239.25;;;15.62;25.53
29197;BME280;62796;42.654;23.316;2023-03-15T11:00:02;93245.59;;;15.63;25.96
29197;BME280;62796;42.654;23.316;2023-03-15T11:02:31;93242.03;;;15.62;25.47
29197;BME280;62796;42.654;23.316;2023-03-15T11:07:34;93234.00;;;15.51;25.46
29197;BME280;62796;42.654;23.316;2023-03-15T11:10:01;93238.09;;;15.50;25.69
29197;BME280;62796;42.654;23.316;2023-03-15T11:12:28;93231.00;;;15.49;25.76
29197;BME280;62796;42.654;23.316;2023-03-15T11:15:02;93233.59;;;15.47;25.91
29197;BME280;62796;42.654;23.316;2023-03-15T11:17:34;93222.69;;;15.36;25.77
29197;BME280;62796;42.654;23.316;2023-03-15T11:20:03;93231.41;;;15.32;25.91
29197;BME280;62796;42.654;23.316;2023-03-15T11:22:40;93234.97;;;15.33;25.76
29197;BME280;62796;42.654;23.316;2023-03-15T11:25:15;93224.50;;;15.26;25.70
29197;BME280;62796;42.654;23.316;2023-03-15T11:27:42;93232.53;;;15.09;26.08
29197;BME280;62796;42.654;23.316;2023-03-15T11:30:15;93231.06;;;15.08;26.35
29197;BME280;62796;42.654;23.316;2023-03-15T11:32:42;93235.13;;;15.07;26.58
29197;BME280;62796;42.654;23.316;2023-03-15T11:35:14;93221.41;;;15.09;26.95
29197;BME280;62796;42.654;23.316;2023-03-15T11:37:46;93214.22;;;14.92;27.04
29197;BME280;62796;42.654;23.316;2023-03-15T11:40:39;93215.00;;;14.72;27.61
29197;BME280;62796;42.654;23.316;2023-03-15T11:43:20;93218.44;;;14.65;28.52
29197;BME280;62796;42.654;23.316;2023-03-15T11:46:02;93217.69;;;14.65;28.80
29197;BME280;62796;42.654;23.316;2023-03-15T11:48:47;93209.75;;;14.69;28.79
29197;BME280;62796;42.654;23.316;2023-03-15T11:51:15;93216.69;;;14.75;29.01
29197;BME280;62796;42.654;23.316;2023-03-15T11:53:47;93214.47;;;14.81;28.82
29197;BME280;62796;42.654;23.316;2023-03-15T11:56:26;93211.84;;;14.76;29.43
29197;BME280;62796;42.654;23.316;2023-03-15T11:59:04;93213.63;;;14.66;29.80
29197;BME280;62796;42.654;23.316;2023-03-15T12:01:32;93214.16;;;14.44;29.98
29197;BME280;62796;42.654;23.316;2023-03-15T12:06:46;93214.34;;;14.46;31.65
29197;BME280;62796;42.654;23.316;2023-03-15T12:11:57;93193.91;;;14.64;31.22
29197;BME280;62796;42.654;23.316;2023-03-15T12:14:35;93200.22;;;14.64;31.27
29197;BME280;62796;42.654;23.316;2023-03-15T12:19:58;93182.84;;;14.71;30.73
29197;BME280;62796;42.654;23.316;2023-03-15T12:22:29;93184.59;;;14.61;30.66
29197;BME280;62796;42.654;23.316;2023-03-15T12:24:57;93189.56;;;14.55;30.85
29197;BME280;62796;42.654;23.316;2023-03-15T12:27:28;93186.75;;;14.55;30.97
29197;BME280;62796;42.654;23.316;2023-03-15T12:29:59;93189.78;;;14.57;30.88
29197;BME280;62796;42.654;23.316;2023-03-15T12:32:26;93192.75;;;14.38;31.38
29197;BME280;62796;42.654;23.316;2023-03-15T12:35:04;93187.13;;;14.18;32.10
29197;BME280;62796;42.654;23.316;2023-03-15T12:37:50;93177.56;;;13.93;32.70
29197;BME280;62796;42.654;23.316;2023-03-15T12:55:50;93176.69;;;12.85;34.85
29197;BME280;62796;42.654;23.316;2023-03-15T12:58:18;93174.63;;;12.72;34.65
29197;BME280;62796;42.654;23.316;2023-03-15T13:00:45;93187.81;;;12.98;34.60
29197;BME280;62796;42.654;23.316;2023-03-15T13:03:13;93174.25;;;13.21;34.22
29197;BME280;62796;42.654;23.316;2023-03-15T13:11:40;93167.59;;;13.63;33.32
29197;BME280;62796;42.654;23.316;2023-03-15T13:14:38;93159.75;;;13.75;33.02
29197;BME280;62796;42.654;23.316;2023-03-15T13:22:51;93166.34;;;14.19;31.65
29197;BME280;62796;42.654;23.316;2023-03-15T13:28:06;93172.31;;;14.36;31.03
29197;BME280;62796;42.654;23.316;2023-03-15T13:30:55;93173.59;;;14.35;31.05
29197;BME280;62796;42.654;23.316;2023-03-15T13:33:29;93173.44;;;14.40;30.87
29197;BME280;62796;42.654;23.316;2023-03-15T13:36:17;93182.09;;;14.50;30.78
29197;BME280;62796;42.654;23.316;2023-03-15T13:38:54;93187.19;;;14.59;30.90
29197;BME280;62796;42.654;23.316;2023-03-15T13:41:27;93177.41;;;14.66;30.80
29197;BME280;62796;42.654;23.316;2023-03-15T13:43:55;93172.81;;;14.76;30.82
29197;BME280;62796;42.654;23.316;2023-03-15T13:46:23;93165.81;;;14.82;30.30
29197;BME280;62796;42.654;23.316;2023-03-15T13:48:52;93182.25;;;14.93;29.55
29197;BME280;62796;42.654;23.316;2023-03-15T13:51:30;93168.69;;;14.90;29.42
29197;BME280;62796;42.654;23.316;2023-03-15T13:57:01;93177.28;;;15.00;29.63
29197;BME280;62796;42.654;23.316;2023-03-15T13:59:55;93188.84;;;15.04;29.20
29197;BME280;62796;42.654;23.316;2023-03-15T14:02:24;93190.53;;;15.07;28.70
29197;BME280;62796;42.654;23.316;2023-03-15T14:05:00;93184.97;;;15.07;28.72
29197;BME280;62796;42.654;23.316;2023-03-15T14:07:35;93178.25;;;15.02;28.91
29197;BME280;62796;42.654;23.316;2023-03-15T14:10:34;93179.19;;;15.05;29.10
29197;BME280;62796;42.654;23.316;2023-03-15T14:15:48;93179.44;;;14.65;31.11
29197;BME280;62796;42.654;23.316;2023-03-15T14:18:22;93174.13;;;14.75;31.79